Time;durP1;ratioP1;P1;durP2;ratioP2;P2;SDS_P1;SDS_P2;PMS_P1;PMS_P2;Temp;Humidity;BMP_temperature;BMP_pressure;BME280_temperature;BME280_humidity;BME280_pressure;Samples;Min_cycle;Max_cycle;Signal;HPM_P1;HPM_P2
2023/12/14 04:56:49;;;;;;;19.20;7.32;;;;;;;3.85;100.00;99161.22;5557655;28;20151;-88
2023/12/14 04:59:52;;;;;;;17.62;8.77;;;;;;;3.81;100.00;99170.56;5377930;33;33635;-87
2023/12/14 05:02:55;;;;;;;19.27;8.88;;;;;;;3.71;100.00;99162.69;5352943;33;34720;-87
2023/12/14 05:05:58;;;;;;;19.62;8.55;;;;;;;3.74;100.00;99166.88;5352883;33;33783;-87
2023/12/14 05:09:04;;;;;;;20.45;9.07;;;;;;;3.73;100.00;99168.69;5377770;33;34330;-88
2023/12/14 05:12:07;;;;;;;18.85;7.87;;;;;;;3.75;100.00;99174.72;5364819;33;34471;-87
2023/12/14 05:15:11;;;;;;;17.27;8.38;;;;;;;3.80;100.00;99175.06;5377956;33;33770;-87
2023/12/14 05:18:14;;;;;;;22.73;9.95;;;;;;;3.75;100.00;99176.53;5365054;33;34057;-87
2023/12/14 05:21:18;;;;;;;21.02;8.10;;;;;;;3.71;100.00;99184.00;5352767;33;34675;-87
2023/12/14 05:24:21;;;;;;;19.67;8.85;;;;;;;3.73;100.00;99178.53;5377646;33;33591;-86
2023/12/14 05:27:24;;;;;;;21.05;8.90;;;;;;;3.81;100.00;99178.53;5369209;33;34052;-86
2023/12/14 05:30:28;;;;;;;23.33;9.70;;;;;;;3.74;100.00;99190.81;5358130;33;35420;-86
2023/12/14 05:33:31;;;;;;;20.12;9.15;;;;;;;3.78;100.00;99201.00;5358107;33;34383;-87
2023/12/14 05:36:34;;;;;;;19.90;8.88;;;;;;;3.73;100.00;99207.81;5359569;33;34231;-86
2023/12/14 05:39:40;;;;;;;24.58;9.88;;;;;;;3.74;100.00;99207.63;5366200;33;33760;-87
2023/12/14 05:42:44;;;;;;;23.25;11.23;;;;;;;3.82;100.00;99215.63;5382415;33;34118;-87
2023/12/14 05:45:47;;;;;;;21.73;9.88;;;;;;;3.76;100.00;99220.78;5381276;33;34034;-87
2023/12/14 05:48:50;;;;;;;20.80;10.20;;;;;;;3.77;100.00;99230.44;5356117;33;34483;-86
2023/12/14 05:51:53;;;;;;;19.52;9.35;;;;;;;3.70;100.00;99242.72;5380973;33;33885;-87
2023/12/14 05:54:56;;;;;;;22.20;10.13;;;;;;;3.76;100.00;99237.59;5355920;33;34026;-87
2023/12/14 05:58:06;;;;;;;22.25;8.93;;;;;;;3.77;100.00;99247.25;5368920;33;34822;-87
2023/12/14 06:01:09;;;;;;;20.83;9.85;;;;;;;3.78;100.00;99256.91;5366321;33;34042;-87
2023/12/14 06:04:12;;;;;;;21.20;10.25;;;;;;;3.81;100.00;99264.56;5366949;33;34929;-87
2023/12/14 06:07:17;;;;;;;24.75;10.02;;;;;;;3.83;100.00;99269.72;5367567;33;33696;-86
2023/12/14 06:10:21;;;;;;;22.58;10.68;;;;;;;3.80;100.00;99278.88;5356078;33;33831;-91
2023/12/14 06:13:24;;;;;;;21.52;10.18;;;;;;;3.83;100.00;99277.69;5373584;33;34325;-91
2023/12/14 06:16:27;;;;;;;22.10;10.27;;;;;;;3.90;100.00;99265.41;5370417;33;33851;-88
2023/12/14 06:19:33;;;;;;;23.27;10.73;;;;;;;3.87;100.00;99273.72;5354290;33;34059;-87
2023/12/14 06:22:37;;;;;;;20.02;9.77;;;;;;;3.83;100.00;99272.38;5365640;33;34722;-87
2023/12/14 06:25:40;;;;;;;21.30;10.40;;;;;;;3.82;100.00;99273.38;5372645;33;34071;-87
2023/12/14 06:28:43;;;;;;;18.58;9.13;;;;;;;3.77;100.00;99273.88;5378492;33;34706;-87
2023/12/14 06:31:47;;;;;;;20.67;9.85;;;;;;;3.80;100.00;99283.34;5364614;33;34928;-87
2023/12/14 06:34:50;;;;;;;18.77;10.02;;;;;;;3.75;100.00;99281.19;5358391;33;34083;-87
2023/12/14 06:37:53;;;;;;;20.73;9.40;;;;;;;3.84;100.00;99282.03;5336977;33;34076;-87
2023/12/14 06:40:56;;;;;;;22.48;10.15;;;;;;;3.78;100.00;99282.69;5363229;33;34488;-87
2023/12/14 06:44:00;;;;;;;22.77;9.68;;;;;;;3.89;100.00;99290.38;5349062;33;34004;-87
2023/12/14 06:47:06;;;;;;;21.58;10.43;;;;;;;3.87;100.00;99289.72;5363810;33;34830;-86
2023/12/14 06:50:09;;;;;;;21.58;9.80;;;;;;;3.85;100.00;99292.50;5381119;33;33871;-86
2023/12/14 06:53:15;;;;;;;21.62;10.13;;;;;;;3.80;100.00;99301.97;5387560;33;34128;-86
2023/12/14 06:56:18;;;;;;;21.98;9.88;;;;;;;3.80;100.00;99300.16;5348836;33;34827;-86
2023/12/14 06:59:22;;;;;;;24.87;10.80;;;;;;;3.82;100.00;99303.47;5353890;33;34038;-86
2023/12/14 07:02:25;;;;;;;25.23;10.75;;;;;;;3.89;100.00;99309.03;5337914;33;35365;-86
2023/12/14 07:05:29;;;;;;;22.42;11.15;;;;;;;3.94;100.00;99317.34;5337336;33;33883;-86
2023/12/14 07:08:32;;;;;;;22.42;10.88;;;;;;;4.00;100.00;99321.19;5348678;33;33397;-86
2023/12/14 07:11:35;;;;;;;23.38;9.55;;;;;;;3.97;100.00;99330.31;5365350;33;33734;-87
2023/12/14 07:14:38;;;;;;;21.10;10.02;;;;;;;3.96;100.00;99330.50;5358579;33;34099;-86
2023/12/14 07:17:41;;;;;;;20.10;9.32;;;;;;;3.96;100.00;99331.34;5365976;33;35234;-86
2023/12/14 07:20:44;;;;;;;21.60;9.45;;;;;;;3.97;100.00;99334.81;5356595;33;34036;-88
2023/12/14 07:23:47;;;;;;;22.92;10.35;;;;;;;4.07;100.00;99346.19;5382163;33;34120;-87
2023/12/14 07:26:50;;;;;;;21.48;10.07;;;;;;;4.10;100.00;99356.53;5368402;33;34361;-86
2023/12/14 07:29:53;;;;;;;23.55;10.52;;;;;;;4.17;100.00;99354.03;5369853;33;34578;-86
2023/12/14 07:32:56;;;;;;;19.50;9.88;;;;;;;4.24;100.00;99355.91;5365399;33;34002;-86
2023/12/14 07:36:00;;;;;;;19.60;9.48;;;;;;;4.26;100.00;99359.22;5353675;33;33794;-88
2023/12/14 07:39:03;;;;;;;23.33;10.07;;;;;;;4.32;100.00;99371.88;5353343;33;33867;-85
2023/12/14 07:42:06;;;;;;;21.00;10.05;;;;;;;4.36;100.00;99375.09;5364674;33;34825;-84
2023/12/14 07:45:10;;;;;;;19.25;9.70;;;;;;;4.28;100.00;99375.87;5353648;33;34248;-86
2023/12/14 07:48:13;;;;;;;20.08;10.25;;;;;;;4.34;100.00;99370.91;5357086;33;134715;-86
2023/12/14 07:51:17;;;;;;;19.35;9.30;;;;;;;4.34;100.00;99387.72;5373188;33;34605;-86
2023/12/14 07:54:21;;;;;;;20.95;9.65;;;;;;;4.39;100.00;99388.09;5353126;33;34221;-86
2023/12/14 07:57:24;;;;;;;20.20;9.50;;;;;;;4.37;100.00;99391.91;5362385;33;34866;-86
2023/12/14 08:00:27;;;;;;;17.35;9.63;;;;;;;4.40;100.00;99396.91;5375304;33;34016;-85
2023/12/14 08:03:30;;;;;;;22.27;10.98;;;;;;;4.55;100.00;99403.28;5365273;33;33726;-86
2023/12/14 08:06:33;;;;;;;18.45;8.82;;;;;;;4.54;100.00;99410.44;5365612;33;33997;-86
2023/12/14 08:09:37;;;;;;;17.23;9.77;;;;;;;4.57;100.00;99409.28;5366659;33;33877;-85
2023/12/14 08:12:39;;;;;;;19.42;9.57;;;;;;;4.58;100.00;99415.44;5379181;33;33674;-86
2023/12/14 08:15:43;;;;;;;19.12;9.52;;;;;;;4.64;100.00;99412.94;5365009;33;34204;-86
2023/12/14 08:18:48;;;;;;;19.08;9.60;;;;;;;4.67;100.00;99423.28;5364902;33;34529;-88
2023/12/14 08:21:51;;;;;;;21.77;10.07;;;;;;;4.65;100.00;99430.63;5364795;33;33728;-91
2023/12/14 08:24:54;;;;;;;25.55;10.30;;;;;;;4.68;100.00;99430.31;5363696;33;34102;-90
2023/12/14 08:27:57;;;;;;;19.73;9.18;;;;;;;4.65;100.00;99430.63;5352740;33;33823;-90
2023/12/14 08:31:03;;;;;;;18.85;9.75;;;;;;;4.70;100.00;99440.78;5352855;33;34788;-87
2023/12/14 08:34:06;;;;;;;22.17;9.90;;;;;;;4.69;100.00;99444.47;5365190;33;33801;-85
2023/12/14 08:37:09;;;;;;;18.05;9.93;;;;;;;4.71;100.00;99445.13;5364768;33;34199;-85
2023/12/14 08:40:12;;;;;;;17.00;9.38;;;;;;;4.76;100.00;99454.28;5377853;33;34864;-85
2023/12/14 08:43:14;;;;;;;21.45;10.00;;;;;;;4.82;100.00;99450.16;5378361;33;34069;-87
2023/12/14 08:46:17;;;;;;;15.98;9.57;;;;;;;4.93;100.00;99455.16;5377104;33;33840;-85
2023/12/14 08:49:20;;;;;;;19.60;9.43;;;;;;;4.84;100.00;99455.31;5375776;33;34130;-84
2023/12/14 08:52:23;;;;;;;18.85;9.95;;;;;;;4.87;100.00;99449.66;5372178;33;34030;-86
2023/12/14 08:55:27;;;;;;;17.62;9.43;;;;;;;4.95;100.00;99457.69;5358329;33;33625;-86
2023/12/14 08:58:30;;;;;;;18.08;9.00;;;;;;;4.96;100.00;99454.00;5366035;33;33665;-84
2023/12/14 09:01:33;;;;;;;20.90;10.25;;;;;;;5.07;100.00;99466.19;5341083;33;34391;-84
2023/12/14 09:04:37;;;;;;;19.95;10.02;;;;;;;5.07;100.00;99467.03;5356486;33;33714;-84
2023/12/14 09:07:40;;;;;;;16.80;9.20;;;;;;;5.15;100.00;99474.22;5357270;33;34862;-85
2023/12/14 09:10:44;;;;;;;17.85;9.25;;;;;;;5.15;100.00;99476.88;5350534;33;34057;-83
2023/12/14 09:13:47;;;;;;;20.33;10.13;;;;;;;5.25;100.00;99485.56;5374908;33;34091;-83
2023/12/14 09:16:51;;;;;;;15.52;8.25;;;;;;;5.22;100.00;99484.06;5351949;33;34123;-84
2023/12/14 09:19:53;;;;;;;17.58;8.63;;;;;;;5.35;100.00;99480.91;5365720;33;34085;-83
2023/12/14 09:22:56;;;;;;;19.27;9.60;;;;;;;5.41;100.00;99490.06;5367915;33;33995;-84
2023/12/14 09:26:00;;;;;;;19.85;9.15;;;;;;;5.48;100.00;99488.41;5357091;33;35527;-84
2023/12/14 09:29:03;;;;;;;19.65;9.25;;;;;;;5.51;100.00;99485.41;5359626;33;34234;-85
2023/12/14 09:32:08;;;;;;;16.17;8.80;;;;;;;5.62;100.00;99492.25;5360480;33;33800;-85
2023/12/14 09:35:12;;;;;;;17.83;9.13;;;;;;;5.74;100.00;99495.41;5365764;33;33938;-84
2023/12/14 09:38:19;;;;;;;18.70;9.27;;;;;;;5.77;100.00;99500.41;5355223;33;34554;-85
2023/12/14 09:41:22;;;;;;;19.73;9.35;;;;;;;5.77;100.00;99505.75;5361327;33;33696;-85
2023/12/14 09:44:26;;;;;;;18.08;8.75;;;;;;;5.76;100.00;99507.59;5355799;33;35063;-84
2023/12/14 09:47:29;;;;;;;19.37;10.05;;;;;;;5.81;100.00;99512.41;5367814;33;33757;-85
2023/12/14 09:50:36;;;;;;;14.35;7.35;;;;;;;5.99;100.00;99515.75;5377565;33;34871;-85
2023/12/14 09:53:39;;;;;;;15.15;8.55;;;;;;;5.99;100.00;99518.44;5379377;33;35669;-85
2023/12/14 09:56:47;;;;;;;18.85;9.82;;;;;;;6.21;100.00;99511.56;5366142;33;34761;-85
2023/12/14 09:59:54;;;;;;;16.10;9.30;;;;;;;6.33;100.00;99512.84;5365916;33;34044;-85
2023/12/14 10:02:57;;;;;;;15.57;8.98;;;;;;;6.26;100.00;99524.38;5367487;33;34151;-85
2023/12/14 10:06:03;;;;;;;18.50;9.30;;;;;;;6.38;100.00;99520.37;5348024;33;34747;-85
2023/12/14 10:09:13;;;;;;;16.33;9.27;;;;;;;6.40;100.00;99522.84;5346503;33;33781;-85
2023/12/14 10:12:16;;;;;;;18.42;8.90;;;;;;;6.34;100.00;99524.38;5366466;33;35543;-85
2023/12/14 10:15:19;;;;;;;19.35;9.48;;;;;;;6.39;100.00;99530.03;5353173;33;34362;-85
2023/12/14 10:18:26;;;;;;;19.02;9.68;;;;;;;6.52;100.00;99538.38;5353540;33;34191;-90
2023/12/14 10:21:32;;;;;;;16.50;8.75;;;;;;;6.62;100.00;99537.34;5366815;33;33843;-89
2023/12/14 10:24:35;;;;;;;16.27;8.90;;;;;;;6.68;100.00;99544.66;5379163;33;34090;-85
2023/12/14 10:27:38;;;;;;;14.90;8.93;;;;;;;6.58;100.00;99544.84;5353923;33;34148;-85
2023/12/14 10:30:42;;;;;;;19.37;9.23;;;;;;;6.78;100.00;99546.09;5352976;33;34828;-85
2023/12/14 10:33:45;;;;;;;15.88;8.95;;;;;;;6.84;100.00;99557.13;5374102;33;33600;-85
2023/12/14 10:36:49;;;;;;;14.95;8.45;;;;;;;6.81;100.00;99560.97;5380118;33;33723;-85
2023/12/14 10:39:54;;;;;;;16.52;8.95;;;;;;;6.97;100.00;99552.88;5360396;33;34034;-84
2023/12/14 10:42:59;;;;;;;15.25;7.43;;;;;;;6.91;100.00;99548.25;5363540;33;34238;-85
2023/12/14 10:46:07;;;;;;;15.13;8.45;;;;;;;6.83;100.00;99556.28;5349154;33;34833;-85
2023/12/14 10:49:10;;;;;;;17.15;8.38;;;;;;;6.97;100.00;99558.25;5377284;33;33988;-84
2023/12/14 10:52:13;;;;;;;17.15;8.32;;;;;;;6.81;100.00;99564.50;5341215;33;34890;-85
2023/12/14 10:55:30;;;;;;;13.82;7.90;;;;;;;6.77;100.00;99563.16;5347382;33;34197;-85
2023/12/14 10:58:53;;;;;;;16.40;8.68;;;;;;;6.80;100.00;99564.66;5360360;33;35121;-85
2023/12/14 11:01:57;;;;;;;16.20;9.02;;;;;;;6.83;100.00;99575.03;5360582;33;34265;-85
2023/12/14 11:05:09;;;;;;;17.83;9.10;;;;;;;6.81;100.00;99582.37;5335428;33;33810;-84
2023/12/14 11:08:13;;;;;;;15.07;8.25;;;;;;;6.78;100.00;99585.41;5360473;33;33744;-85
2023/12/14 11:11:20;;;;;;;17.50;8.68;;;;;;;6.85;100.00;99591.75;5347304;33;34139;-85
2023/12/14 11:14:25;;;;;;;14.05;8.40;;;;;;;6.90;100.00;99594.72;5349749;33;35181;-84
2023/12/14 11:17:29;;;;;;;19.02;10.55;;;;;;;7.01;100.00;99598.84;5361955;33;35177;-84
2023/12/14 11:20:47;;;;;;;15.95;8.02;;;;;;;6.89;100.00;99600.25;5362449;33;34846;-84
2023/12/14 11:23:50;;;;;;;17.80;9.38;;;;;;;6.81;100.00;99598.44;5350217;33;34009;-84
2023/12/14 11:26:54;;;;;;;14.35;9.00;;;;;;;6.91;100.00;99596.41;5369858;33;34126;-84
2023/12/14 11:29:57;;;;;;;19.67;10.45;;;;;;;6.89;100.00;99592.22;5365948;33;33725;-84
2023/12/14 11:33:01;;;;;;;16.50;9.30;;;;;;;6.88;100.00;99594.06;5352724;33;33986;-84
2023/12/14 11:36:05;;;;;;;17.45;9.20;;;;;;;6.94;100.00;99589.87;5348654;33;34736;-88
2023/12/14 11:39:09;;;;;;;17.17;9.00;;;;;;;7.08;100.00;99602.53;5335939;33;34713;-88
2023/12/14 11:42:16;;;;;;;16.98;9.30;;;;;;;6.97;100.00;99602.91;5385576;33;34839;-88
2023/12/14 11:45:20;;;;;;;15.60;8.73;;;;;;;6.92;100.00;99608.75;5356136;33;33813;-85
2023/12/14 11:48:23;;;;;;;16.98;8.70;;;;;;;6.95;100.00;99597.72;5365340;33;35116;-84
2023/12/14 11:51:26;;;;;;;16.50;8.57;;;;;;;7.11;100.00;99604.84;5365845;33;34102;-84
2023/12/14 11:54:29;;;;;;;15.38;8.48;;;;;;;7.12;100.00;99603.84;5353435;33;34240;-84
2023/12/14 11:57:32;;;;;;;17.98;9.10;;;;;;;7.41;100.00;99607.69;5360949;33;34080;-84
2023/12/14 12:00:37;;;;;;;15.73;9.00;;;;;;;7.44;100.00;99612.69;5361361;33;34561;-84
2023/12/14 12:03:41;;;;;;;19.65;9.48;;;;;;;7.60;100.00;99620.63;5382842;33;35687;-84
2023/12/14 12:06:44;;;;;;;15.52;9.48;;;;;;;7.83;100.00;99620.63;5366048;33;35332;-84
2023/12/14 12:09:48;;;;;;;19.25;9.05;;;;;;;7.77;100.00;99624.03;5347822;33;34400;-84
2023/12/14 12:13:02;;;;;;;18.12;9.60;;;;;;;7.98;100.00;99627.91;5355877;33;33395;-84
2023/12/14 12:16:05;;;;;;;17.02;9.20;;;;;;;8.11;100.00;99636.19;5370197;33;34769;-84
2023/12/14 12:19:08;;;;;;;20.30;9.52;;;;;;;8.21;100.00;99636.75;5363774;33;33016;-84
2023/12/14 12:22:12;;;;;;;14.45;8.73;;;;;;;8.38;100.00;99629.41;5353593;33;33988;-84
2023/12/14 12:25:14;;;;;;;16.02;8.82;;;;;;;8.58;100.00;99635.94;5354035;33;33618;-83
2023/12/14 12:28:18;;;;;;;20.92;9.25;;;;;;;8.60;100.00;99631.25;5353487;33;33882;-84
2023/12/14 12:31:21;;;;;;;18.40;8.85;;;;;;;9.12;100.00;99640.22;5361930;33;33480;-84
2023/12/14 12:34:24;;;;;;;15.45;8.93;;;;;;;9.47;100.00;99648.50;5349466;33;34008;-84
2023/12/14 12:37:26;;;;;;;16.95;9.50;;;;;;;9.98;100.00;99648.44;5354550;33;33691;-86
2023/12/14 12:40:31;;;;;;;14.38;8.70;;;;;;;10.33;100.00;99653.97;5349585;33;34880;-84
2023/12/14 12:43:34;;;;;;;15.82;8.77;;;;;;;11.27;100.00;99665.16;5350017;33;34700;-83
2023/12/14 12:46:38;;;;;;;15.30;7.72;;;;;;;12.00;100.00;99662.72;5364041;33;34362;-84
2023/12/14 12:49:41;;;;;;;17.00;8.50;;;;;;;12.45;100.00;99670.25;5379408;33;33756;-85
2023/12/14 12:52:48;;;;;;;14.82;8.77;;;;;;;13.03;100.00;99674.97;5357486;33;34367;-86
2023/12/14 12:55:51;;;;;;;16.33;8.68;;;;;;;12.34;100.00;99685.19;5353497;33;33837;-85
2023/12/14 12:58:54;;;;;;;14.25;8.57;;;;;;;12.36;100.00;99676.91;5347477;33;33805;-86
2023/12/14 13:01:57;;;;;;;15.73;8.75;;;;;;;11.76;100.00;99685.69;5369621;33;34166;-85
2023/12/14 13:05:01;;;;;;;15.13;8.57;;;;;;;10.67;100.00;99698.94;5360347;33;33684;-84
2023/12/14 13:08:04;;;;;;;16.08;8.65;;;;;;;10.29;100.00;99701.09;5362703;33;33872;-83
2023/12/14 13:11:07;;;;;;;17.08;8.82;;;;;;;9.42;100.00;99710.00;5374073;33;34293;-83
2023/12/14 13:14:11;;;;;;;14.75;8.18;;;;;;;8.75;100.00;99708.25;5346026;33;34179;-82
2023/12/14 13:17:17;;;;;;;14.48;8.23;;;;;;;8.14;100.00;99711.72;5371119;33;33868;-85
2023/12/14 13:20:21;;;;;;;14.68;8.73;;;;;;;8.08;100.00;99717.81;5379049;33;34488;-85
2023/12/14 13:23:24;;;;;;;14.18;9.00;;;;;;;7.91;100.00;99716.25;5355128;33;33902;-85
2023/12/14 13:26:27;;;;;;;14.45;8.65;;;;;;;7.59;100.00;99726.13;5355414;33;33928;-85
2023/12/14 13:29:32;;;;;;;16.42;8.43;;;;;;;7.50;100.00;99722.62;5380899;33;34067;-86
2023/12/14 13:32:35;;;;;;;16.15;8.23;;;;;;;7.47;100.00;99730.19;5380466;33;33632;-86
2023/12/14 13:35:38;;;;;;;15.85;8.70;;;;;;;7.24;100.00;99738.12;5380459;33;34669;-90
2023/12/14 13:38:41;;;;;;;13.57;7.43;;;;;;;7.31;100.00;99743.63;5380432;33;34029;-90
2023/12/14 13:41:45;;;;;;;13.30;8.20;;;;;;;7.31;100.00;99744.47;5380361;33;34183;-90
2023/12/14 13:44:52;;;;;;;14.75;7.95;;;;;;;7.20;100.00;99744.84;5380234;33;34114;-86
2023/12/14 13:47:55;;;;;;;14.25;7.78;;;;;;;7.13;100.00;99765.25;5365772;33;34109;-86
2023/12/14 13:50:58;;;;;;;14.45;7.25;;;;;;;6.96;100.00;99765.31;5380168;33;33743;-86
2023/12/14 13:54:02;;;;;;;14.63;7.93;;;;;;;6.96;100.00;99770.66;5367132;33;34175;-86
2023/12/14 13:57:04;;;;;;;16.90;8.30;;;;;;;6.97;100.00;99780.34;5354745;33;34381;-86
2023/12/14 14:00:09;;;;;;;15.07;8.23;;;;;;;7.01;100.00;99794.22;5366854;33;33701;-86
2023/12/14 14:03:12;;;;;;;17.62;8.45;;;;;;;6.99;100.00;99802.44;5367394;33;34684;-86
2023/12/14 14:06:15;;;;;;;15.32;8.32;;;;;;;6.97;100.00;99798.25;5367195;33;33942;-85
2023/12/14 14:09:19;;;;;;;13.32;7.25;;;;;;;6.94;100.00;99810.13;5366863;33;34372;-86
2023/12/14 14:12:22;;;;;;;10.88;7.18;;;;;;;7.03;100.00;99817.13;5367062;33;33982;-86
2023/12/14 14:15:26;;;;;;;12.98;7.40;;;;;;;6.99;100.00;99823.84;5367079;33;34172;-86
2023/12/14 14:18:29;;;;;;;15.45;7.57;;;;;;;6.94;100.00;99820.84;5355423;33;33578;-87
2023/12/14 14:21:32;;;;;;;14.38;8.10;;;;;;;7.06;100.00;99820.50;5357450;33;34274;-86
2023/12/14 14:24:35;;;;;;;11.43;7.15;;;;;;;6.89;100.00;99827.69;5368637;33;34552;-86
2023/12/14 14:27:40;;;;;;;14.75;7.85;;;;;;;6.76;100.00;99833.56;5367499;33;34509;-87
2023/12/14 14:30:43;;;;;;;12.68;6.93;;;;;;;6.64;100.00;99837.53;5360044;33;34358;-87
2023/12/14 14:33:48;;;;;;;12.37;6.70;;;;;;;6.60;100.00;99847.72;5395558;33;34495;-86
2023/12/14 14:36:51;;;;;;;11.95;6.80;;;;;;;6.55;100.00;99847.38;5351539;33;33816;-86
2023/12/14 14:39:54;;;;;;;13.18;7.25;;;;;;;6.40;100.00;99860.56;5350094;33;34118;-86
2023/12/14 14:42:58;;;;;;;11.20;6.15;;;;;;;6.31;100.00;99858.88;5371890;33;34179;-86
2023/12/14 14:46:01;;;;;;;14.43;7.30;;;;;;;6.16;100.00;99858.66;5357373;33;34668;-86
2023/12/14 14:49:04;;;;;;;15.27;7.25;;;;;;;6.07;100.00;99867.66;5349294;33;35176;-86
2023/12/14 14:52:08;;;;;;;13.30;7.20;;;;;;;6.00;100.00;99861.28;5364177;33;34270;-86
2023/12/14 14:55:11;;;;;;;11.88;7.05;;;;;;;5.96;100.00;99855.41;5364817;33;33582;-86
2023/12/14 14:58:14;;;;;;;11.70;6.55;;;;;;;5.85;100.00;99861.00;5366002;33;33821;-85
2023/12/14 15:01:17;;;;;;;16.62;7.22;;;;;;;5.87;100.00;99875.03;5337582;33;34984;-86
2023/12/14 15:04:20;;;;;;;11.63;6.43;;;;;;;5.83;100.00;99873.69;5364406;33;34840;-86
2023/12/14 15:07:24;;;;;;;15.70;7.97;;;;;;;5.63;100.00;99878.44;5363927;33;34164;-86
2023/12/14 15:10:27;;;;;;;10.00;6.32;;;;;;;5.52;100.00;99878.69;5352210;33;34162;-86
2023/12/14 15:13:30;;;;;;;16.62;7.68;;;;;;;5.52;100.00;99897.38;5337202;33;34907;-86
2023/12/14 15:16:35;;;;;;;14.32;7.70;;;;;;;5.43;100.00;99893.81;5364633;33;34035;-86
2023/12/14 15:31:34;;;;;;;15.77;9.82;;;;;;;5.84;100.00;99936.81;5556113;32;195991;-86
2023/12/14 15:34:38;;;;;;;14.07;7.10;;;;;;;5.84;100.00;99936.81;5549168;32;32449;-85
2023/12/14 15:37:41;;;;;;;15.70;8.05;;;;;;;5.39;100.00;99940.53;5537246;32;35088;-86
2023/12/14 15:40:44;;;;;;;13.48;7.70;;;;;;;5.55;100.00;99937.94;5538372;32;33945;-85
2023/12/14 15:43:48;;;;;;;14.98;8.48;;;;;;;5.80;100.00;99944.31;5523206;32;34769;-85
2023/12/14 15:46:51;;;;;;;15.40;8.15;;;;;;;5.81;100.00;99953.97;5520291;32;33806;-86
2023/12/14 15:49:54;;;;;;;19.15;8.55;;;;;;;5.78;100.00;99951.62;5510286;32;33506;-85
2023/12/14 15:52:58;;;;;;;15.13;8.63;;;;;;;5.74;100.00;99962.81;5518249;32;33834;-85
2023/12/14 15:56:01;;;;;;;18.30;9.85;;;;;;;5.75;100.00;99969.81;5540168;32;33842;-85
2023/12/14 15:59:06;;;;;;;17.62;8.70;;;;;;;5.71;100.00;99976.47;5525181;32;33557;-85
2023/12/14 16:02:10;;;;;;;16.83;8.68;;;;;;;5.79;100.00;99974.69;5525167;32;33463;-89
2023/12/14 16:05:14;;;;;;;16.85;9.20;;;;;;;5.72;100.00;99975.47;5525526;32;33707;-90
2023/12/14 16:08:17;;;;;;;19.30;9.35;;;;;;;5.60;100.00;99977.53;5498359;32;33229;-86
2023/12/14 16:11:20;;;;;;;15.35;8.82;;;;;;;5.58;100.00;99985.69;5510109;32;33414;-86
2023/12/14 16:14:24;;;;;;;16.30;9.60;;;;;;;5.61;100.00;99990.72;5505651;32;34708;-85
2023/12/14 16:17:28;;;;;;;17.83;10.20;;;;;;;5.53;100.00;100000.50;5491811;32;33283;-85
2023/12/14 16:20:31;;;;;;;15.35;8.68;;;;;;;5.56;100.00;100006.41;5479114;32;33445;-86
2023/12/14 16:23:35;;;;;;;18.83;9.48;;;;;;;5.46;100.00;100002.97;5491451;32;34785;-86
2023/12/14 16:26:41;;;;;;;18.52;9.43;;;;;;;5.49;100.00;100002.66;5491435;32;34802;-86
2023/12/14 16:29:48;;;;;;;20.55;10.07;;;;;;;5.49;100.00;100010.66;5507361;32;34087;-86
2023/12/14 16:32:52;;;;;;;17.42;8.73;;;;;;;5.54;100.00;100020.91;5511118;32;33462;-85
2023/12/14 16:35:55;;;;;;;20.45;10.07;;;;;;;5.45;100.00;100012.81;5485573;32;34801;-86
2023/12/14 16:38:59;;;;;;;17.02;9.57;;;;;;;5.44;100.00;100021.81;5504077;32;33804;-86
2023/12/14 16:42:02;;;;;;;16.60;9.60;;;;;;;5.49;100.00;100029.34;5485503;32;33641;-85
2023/12/14 16:45:05;;;;;;;20.20;9.75;;;;;;;5.38;100.00;100033.13;5485263;32;33336;-83
2023/12/14 16:48:08;;;;;;;23.02;10.63;;;;;;;5.47;100.00;100034.03;5511209;32;34110;-83
2023/12/14 16:51:11;;;;;;;15.50;8.85;;;;;;;5.42;100.00;100045.16;5497608;32;33864;-83
2023/12/14 16:54:14;;;;;;;18.37;9.40;;;;;;;5.42;100.00;100049.66;5485631;32;34543;-83
2023/12/14 16:57:18;;;;;;;19.62;10.18;;;;;;;5.39;100.00;100049.97;5498447;32;33733;-83
